sensor_id;sensor_type;location;lat;lon;timestamp;pressure;altitude;pressure_sealevel;temperature;humidity
10668;BME280;5382;42.136;24.796;2023-05-01T00:00:23;99862.81;;;13.24;100.00
10668;BME280;5382;42.136;24.796;2023-05-01T00:02:50;99860.78;;;13.27;100.00
10668;BME280;5382;42.136;24.796;2023-05-01T00:05:18;99845.03;;;13.36;100.00
10668;BME280;5382;42.136;24.796;2023-05-01T00:07:45;99831.81;;;13.45;100.00
10668;BME280;5382;42.136;24.796;2023-05-01T00:10:13;99829.16;;;13.45;100.00
10668;BME280;5382;42.136;24.796;2023-05-01T00:12:40;99824.28;;;13.50;100.00
10668;BME280;5382;42.136;24.796;2023-05-01T00:15:08;99819.28;;;13.57;100.00
10668;BME280;5382;42.136;24.796;2023-05-01T00:17:36;99813.28;;;13.65;100.00
10668;BME280;5382;42.136;24.796;2023-05-01T00:20:03;99802.81;;;13.63;100.00
10668;BME280;5382;42.136;24.796;2023-05-01T00:22:30;99811.91;;;13.70;100.00
10668;BME280;5382;42.136;24.796;2023-05-01T00:24:57;99815.19;;;13.74;100.00
10668;BME280;5382;42.136;24.796;2023-05-01T00:27:25;99818.66;;;13.74;100.00
10668;BME280;5382;42.136;24.796;2023-05-01T00:29:52;99812.13;;;13.79;100.00
10668;BME280;5382;42.136;24.796;2023-05-01T00:32:18;99814.25;;;13.85;100.00
10668;BME280;5382;42.136;24.796;2023-05-01T00:34:45;99803.75;;;13.93;100.00
10668;BME280;5382;42.136;24.796;2023-05-01T00:37:12;99805.47;;;13.94;100.00
10668;BME280;5382;42.136;24.796;2023-05-01T00:39:39;99815.16;;;14.05;100.00
10668;BME280;5382;42.136;24.796;2023-05-01T00:42:06;99815.72;;;14.08;100.00
10668;BME280;5382;42.136;24.796;2023-05-01T00:44:34;99808.75;;;14.17;100.00
10668;BME280;5382;42.136;24.796;2023-05-01T00:47:01;99814.78;;;14.19;100.00
10668;BME280;5382;42.136;24.796;2023-05-01T00:49:29;99809.19;;;14.22;100.00
10668;BME280;5382;42.136;24.796;2023-05-01T00:51:56;99822.50;;;14.32;100.00
10668;BME280;5382;42.136;24.796;2023-05-01T00:54:23;99824.47;;;14.30;100.00
10668;BME280;5382;42.136;24.796;2023-05-01T00:56:52;99823.50;;;14.31;100.00
10668;BME280;5382;42.136;24.796;2023-05-01T00:59:19;99829.38;;;14.34;100.00
10668;BME280;5382;42.136;24.796;2023-05-01T01:01:49;99822.66;;;14.40;100.00
10668;BME280;5382;42.136;24.796;2023-05-01T01:04:16;99828.00;;;14.40;100.00
10668;BME280;5382;42.136;24.796;2023-05-01T01:06:50;99833.91;;;14.44;100.00
10668;BME280;5382;42.136;24.796;2023-05-01T01:09:26;99832.50;;;14.49;100.00
10668;BME280;5382;42.136;24.796;2023-05-01T01:12:02;99841.50;;;14.48;100.00
10668;BME280;5382;42.136;24.796;2023-05-01T01:14:34;99838.69;;;14.50;100.00
10668;BME280;5382;42.136;24.796;2023-05-01T01:17:08;99841.22;;;14.51;100.00
10668;BME280;5382;42.136;24.796;2023-05-01T01:20:01;99840.50;;;14.49;100.00
10668;BME280;5382;42.136;24.796;2023-05-01T01:22:31;99847.50;;;14.50;100.00
10668;BME280;5382;42.136;24.796;2023-05-01T01:25:20;99847.78;;;14.47;100.00
10668;BME280;5382;42.136;24.796;2023-05-01T01:28:09;99824.38;;;14.41;100.00
10668;BME280;5382;42.136;24.796;2023-05-01T01:31:09;99836.69;;;14.42;100.00
10668;BME280;5382;42.136;24.796;2023-05-01T01:33:50;99846.03;;;14.27;100.00
10668;BME280;5382;42.136;24.796;2023-05-01T01:36:29;99845.03;;;14.18;100.00
10668;BME280;5382;42.136;24.796;2023-05-01T01:39:04;99843.22;;;14.18;100.00
10668;BME280;5382;42.136;24.796;2023-05-01T01:41:33;99846.38;;;14.03;100.00
10668;BME280;5382;42.136;24.796;2023-05-01T01:44:03;99852.09;;;13.98;100.00
10668;BME280;5382;42.136;24.796;2023-05-01T01:46:35;99854.25;;;13.83;100.00
10668;BME280;5382;42.136;24.796;2023-05-01T01:49:08;99855.97;;;13.42;100.00
10668;BME280;5382;42.136;24.796;2023-05-01T01:51:39;99852.25;;;13.13;100.00
10668;BME280;5382;42.136;24.796;2023-05-01T01:54:08;99863.16;;;12.98;100.00
10668;BME280;5382;42.136;24.796;2023-05-01T01:56:38;99866.38;;;12.81;100.00
10668;BME280;5382;42.136;24.796;2023-05-01T01:59:07;99857.47;;;12.71;100.00
10668;BME280;5382;42.136;24.796;2023-05-01T02:01:37;99847.84;;;12.58;100.00
10668;BME280;5382;42.136;24.796;2023-05-01T02:04:06;99852.56;;;12.55;100.00
10668;BME280;5382;42.136;24.796;2023-05-01T02:06:34;99859.44;;;12.46;100.00
10668;BME280;5382;42.136;24.796;2023-05-01T02:09:03;99847.25;;;12.43;100.00
10668;BME280;5382;42.136;24.796;2023-05-01T02:11:32;99849.91;;;12.43;100.00
10668;BME280;5382;42.136;24.796;2023-05-01T02:14:02;99856.06;;;12.44;100.00
10668;BME280;5382;42.136;24.796;2023-05-01T02:16:31;99848.97;;;12.44;100.00
10668;BME280;5382;42.136;24.796;2023-05-01T02:18:59;99859.69;;;12.43;100.00
10668;BME280;5382;42.136;24.796;2023-05-01T02:21:28;99857.28;;;12.40;100.00
10668;BME280;5382;42.136;24.796;2023-05-01T02:23:59;99866.44;;;12.36;100.00
10668;BME280;5382;42.136;24.796;2023-05-01T02:26:27;99864.63;;;12.36;100.00
10668;BME280;5382;42.136;24.796;2023-05-01T02:28:55;99875.84;;;12.40;100.00
10668;BME280;5382;42.136;24.796;2023-05-01T02:31:22;99871.66;;;12.37;100.00
10668;BME280;5382;42.136;24.796;2023-05-01T02:33:49;99869.59;;;12.30;100.00
10668;BME280;5382;42.136;24.796;2023-05-01T02:36:16;99863.09;;;12.22;100.00
10668;BME280;5382;42.136;24.796;2023-05-01T02:38:44;99862.13;;;12.12;100.00
10668;BME280;5382;42.136;24.796;2023-05-01T02:41:15;99852.84;;;12.07;100.00
10668;BME280;5382;42.136;24.796;2023-05-01T02:43:44;99871.84;;;11.78;100.00
10668;BME280;5382;42.136;24.796;2023-05-01T02:46:12;99872.44;;;11.70;100.00
10668;BME280;5382;42.136;24.796;2023-05-01T02:48:41;99873.63;;;11.66;100.00
10668;BME280;5382;42.136;24.796;2023-05-01T02:51:08;99872.78;;;11.66;100.00
10668;BME280;5382;42.136;24.796;2023-05-01T02:53:36;99874.00;;;11.62;100.00
10668;BME280;5382;42.136;24.796;2023-05-01T02:56:06;99877.16;;;11.78;100.00
10668;BME280;5382;42.136;24.796;2023-05-01T02:58:34;99879.81;;;11.78;100.00
10668;BME280;5382;42.136;24.796;2023-05-01T03:01:01;99881.13;;;11.72;100.00
10668;BME280;5382;42.136;24.796;2023-05-01T03:03:27;99890.13;;;11.58;100.00
10668;BME280;5382;42.136;24.796;2023-05-01T03:05:54;99894.22;;;11.63;100.00
10668;BME280;5382;42.136;24.796;2023-05-01T03:08:21;99902.19;;;11.63;100.00
10668;BME280;5382;42.136;24.796;2023-05-01T03:10:48;99907.63;;;11.72;100.00
10668;BME280;5382;42.136;24.796;2023-05-01T03:13:16;99901.00;;;11.78;100.00
10668;BME280;5382;42.136;24.796;2023-05-01T03:15:43;99897.38;;;11.79;100.00
10668;BME280;5382;42.136;24.796;2023-05-01T03:18:10;99905.09;;;11.71;100.00
10668;BME280;5382;42.136;24.796;2023-05-01T03:20:37;99904.13;;;11.72;100.00
10668;BME280;5382;42.136;24.796;2023-05-01T03:23:04;99904.75;;;11.75;100.00
10668;BME280;5382;42.136;24.796;2023-05-01T03:25:32;99906.09;;;11.92;100.00
10668;BME280;5382;42.136;24.796;2023-05-01T03:27:58;99910.22;;;11.96;100.00
10668;BME280;5382;42.136;24.796;2023-05-01T03:30:26;99910.59;;;12.03;100.00
10668;BME280;5382;42.136;24.796;2023-05-01T03:32:53;99905.06;;;12.06;100.00
10668;BME280;5382;42.136;24.796;2023-05-01T03:35:20;99907.56;;;12.08;100.00
10668;BME280;5382;42.136;24.796;2023-05-01T03:37:47;99907.47;;;12.20;100.00
10668;BME280;5382;42.136;24.796;2023-05-01T03:40:14;99906.75;;;12.18;100.00
10668;BME280;5382;42.136;24.796;2023-05-01T03:42:41;99897.94;;;12.18;100.00
10668;BME280;5382;42.136;24.796;2023-05-01T03:45:08;99896.00;;;12.20;100.00
10668;BME280;5382;42.136;24.796;2023-05-01T03:47:37;99909.03;;;12.23;100.00
10668;BME280;5382;42.136;24.796;2023-05-01T03:50:04;99907.84;;;12.27;100.00
10668;BME280;5382;42.136;24.796;2023-05-01T03:52:31;99910.47;;;12.38;100.00
10668;BME280;5382;42.136;24.796;2023-05-01T03:54:58;99919.66;;;12.34;100.00
10668;BME280;5382;42.136;24.796;2023-05-01T03:57:25;99932.06;;;12.45;100.00
10668;BME280;5382;42.136;24.796;2023-05-01T03:59:52;99940.13;;;12.43;100.00
10668;BME280;5382;42.136;24.796;2023-05-01T04:02:19;99943.03;;;12.52;100.00
10668;BME280;5382;42.136;24.796;2023-05-01T04:04:47;99938.44;;;12.54;100.00
10668;BME280;5382;42.136;24.796;2023-05-01T04:07:14;99939.53;;;12.51;100.00
10668;BME280;5382;42.136;24.796;2023-05-01T04:09:41;99944.22;;;12.59;100.00
10668;BME280;5382;42.136;24.796;2023-05-01T04:12:08;99944.59;;;12.65;100.00
10668;BME280;5382;42.136;24.796;2023-05-01T04:14:34;99947.59;;;12.72;100.00
10668;BME280;5382;42.136;24.796;2023-05-01T04:17:01;99953.88;;;12.71;100.00
10668;BME280;5382;42.136;24.796;2023-05-01T04:19:28;99955.94;;;12.68;100.00
10668;BME280;5382;42.136;24.796;2023-05-01T04:21:56;99965.47;;;12.70;100.00
10668;BME280;5382;42.136;24.796;2023-05-01T04:24:23;99955.81;;;12.69;100.00
10668;BME280;5382;42.136;24.796;2023-05-01T04:26:50;99963.16;;;12.77;100.00
10668;BME280;5382;42.136;24.796;2023-05-01T04:29:16;99971.97;;;12.77;100.00
10668;BME280;5382;42.136;24.796;2023-05-01T04:31:43;99973.41;;;12.81;100.00
10668;BME280;5382;42.136;24.796;2023-05-01T04:34:10;99971.34;;;12.85;100.00
10668;BME280;5382;42.136;24.796;2023-05-01T04:36:37;99974.00;;;12.85;100.00
10668;BME280;5382;42.136;24.796;2023-05-01T04:39:05;99966.66;;;12.88;100.00
10668;BME280;5382;42.136;24.796;2023-05-01T04:41:32;99977.28;;;12.88;100.00
10668;BME280;5382;42.136;24.796;2023-05-01T04:43:58;99970.88;;;12.91;100.00
10668;BME280;5382;42.136;24.796;2023-05-01T04:46:25;99975.94;;;12.94;100.00
10668;BME280;5382;42.136;24.796;2023-05-01T04:48:52;99981.84;;;12.98;100.00
10668;BME280;5382;42.136;24.796;2023-05-01T04:51:18;99976.53;;;13.09;100.00
10668;BME280;5382;42.136;24.796;2023-05-01T04:53:45;99976.72;;;13.17;100.00
10668;BME280;5382;42.136;24.796;2023-05-01T04:56:14;99978.75;;;13.25;100.00
10668;BME280;5382;42.136;24.796;2023-05-01T04:58:40;99981.41;;;13.36;100.00
10668;BME280;5382;42.136;24.796;2023-05-01T05:01:07;99986.88;;;13.35;100.00
10668;BME280;5382;42.136;24.796;2023-05-01T05:03:34;99993.84;;;13.36;100.00
10668;BME280;5382;42.136;24.796;2023-05-01T05:06:01;99987.06;;;13.43;100.00
10668;BME280;5382;42.136;24.796;2023-05-01T05:08:28;99987.91;;;13.43;100.00
10668;BME280;5382;42.136;24.796;2023-05-01T05:10:56;99994.53;;;13.49;100.00
10668;BME280;5382;42.136;24.796;2023-05-01T05:13:25;99993.22;;;13.43;100.00
10668;BME280;5382;42.136;24.796;2023-05-01T05:15:52;99997.06;;;13.50;100.00
10668;BME280;5382;42.136;24.796;2023-05-01T05:18:19;99995.19;;;13.62;100.00
10668;BME280;5382;42.136;24.796;2023-05-01T05:20:46;99997.28;;;13.59;100.00
10668;BME280;5382;42.136;24.796;2023-05-01T05:23:12;100010.41;;;13.71;100.00
10668;BME280;5382;42.136;24.796;2023-05-01T05:25:39;99999.38;;;13.76;100.00
10668;BME280;5382;42.136;24.796;2023-05-01T05:28:06;100003.81;;;13.87;100.00
10668;BME280;5382;42.136;24.796;2023-05-01T05:30:35;100003.16;;;13.94;100.00
10668;BME280;5382;42.136;24.796;2023-05-01T05:33:02;99988.69;;;13.87;100.00
10668;BME280;5382;42.136;24.796;2023-05-01T05:35:29;100003.66;;;14.09;100.00
10668;BME280;5382;42.136;24.796;2023-05-01T05:37:56;100005.28;;;14.22;100.00
10668;BME280;5382;42.136;24.796;2023-05-01T05:40:23;100003.91;;;14.27;100.00
10668;BME280;5382;42.136;24.796;2023-05-01T05:42:49;100011.94;;;14.37;100.00
10668;BME280;5382;42.136;24.796;2023-05-01T05:45:16;100013.69;;;14.48;100.00
10668;BME280;5382;42.136;24.796;2023-05-01T05:47:44;100022.75;;;14.56;100.00
10668;BME280;5382;42.136;24.796;2023-05-01T05:50:11;100014.50;;;14.59;100.00
10668;BME280;5382;42.136;24.796;2023-05-01T05:52:38;100022.91;;;14.65;100.00
10668;BME280;5382;42.136;24.796;2023-05-01T05:55:05;100014.66;;;14.68;100.00
10668;BME280;5382;42.136;24.796;2023-05-01T05:57:32;100024.09;;;14.81;100.00
10668;BME280;5382;42.136;24.796;2023-05-01T06:00:01;100024.53;;;14.87;100.00
10668;BME280;5382;42.136;24.796;2023-05-01T06:02:29;100026.13;;;14.99;100.00
10668;BME280;5382;42.136;24.796;2023-05-01T06:04:58;100028.00;;;15.18;100.00
10668;BME280;5382;42.136;24.796;2023-05-01T06:07:24;100030.25;;;15.22;100.00
10668;BME280;5382;42.136;24.796;2023-05-01T06:09:52;100035.63;;;15.32;100.00
10668;BME280;5382;42.136;24.796;2023-05-01T06:12:19;100034.09;;;15.39;100.00
10668;BME280;5382;42.136;24.796;2023-05-01T06:14:46;100040.84;;;15.53;100.00
10668;BME280;5382;42.136;24.796;2023-05-01T06:17:13;100047.19;;;15.62;100.00
10668;BME280;5382;42.136;24.796;2023-05-01T06:19:39;100045.63;;;15.59;100.00
10668;BME280;5382;42.136;24.796;2023-05-01T06:22:08;100041.84;;;15.62;100.00
10668;BME280;5382;42.136;24.796;2023-05-01T06:24:34;100038.34;;;15.71;100.00
10668;BME280;5382;42.136;24.796;2023-05-01T06:27:04;100037.09;;;15.75;100.00
10668;BME280;5382;42.136;24.796;2023-05-01T06:29:31;100036.66;;;15.80;100.00
10668;BME280;5382;42.136;24.796;2023-05-01T06:31:57;100040.16;;;15.90;100.00
10668;BME280;5382;42.136;24.796;2023-05-01T06:34:24;100039.34;;;15.99;100.00
10668;BME280;5382;42.136;24.796;2023-05-01T06:36:51;100040.88;;;16.02;100.00
10668;BME280;5382;42.136;24.796;2023-05-01T06:39:19;100056.72;;;16.13;100.00
10668;BME280;5382;42.136;24.796;2023-05-01T06:41:46;100051.13;;;16.16;100.00
10668;BME280;5382;42.136;24.796;2023-05-01T06:44:13;100054.91;;;16.23;100.00
10668;BME280;5382;42.136;24.796;2023-05-01T06:46:39;100059.22;;;16.34;100.00
10668;BME280;5382;42.136;24.796;2023-05-01T06:49:06;100057.38;;;16.44;100.00
10668;BME280;5382;42.136;24.796;2023-05-01T06:51:33;100064.94;;;16.58;100.00
10668;BME280;5382;42.136;24.796;2023-05-01T06:54:00;100066.91;;;16.66;100.00
10668;BME280;5382;42.136;24.796;2023-05-01T06:56:28;100061.25;;;16.69;100.00
10668;BME280;5382;42.136;24.796;2023-05-01T06:58:56;100065.34;;;16.83;100.00
10668;BME280;5382;42.136;24.796;2023-05-01T07:01:23;100078.22;;;16.88;100.00
10668;BME280;5382;42.136;24.796;2023-05-01T07:03:50;100074.19;;;16.84;100.00
10668;BME280;5382;42.136;24.796;2023-05-01T07:06:17;100081.19;;;16.94;100.00
10668;BME280;5382;42.136;24.796;2023-05-01T07:08:44;100083.94;;;17.03;100.00
10668;BME280;5382;42.136;24.796;2023-05-01T07:11:10;100085.63;;;17.04;100.00
10668;BME280;5382;42.136;24.796;2023-05-01T07:13:38;100092.47;;;17.16;100.00
10668;BME280;5382;42.136;24.796;2023-05-01T07:16:06;100094.09;;;17.27;100.00
10668;BME280;5382;42.136;24.796;2023-05-01T07:18:33;100097.88;;;17.34;100.00
10668;BME280;5382;42.136;24.796;2023-05-01T07:21:00;100097.00;;;17.43;100.00
10668;BME280;5382;42.136;24.796;2023-05-01T07:23:26;100104.19;;;17.42;100.00
10668;BME280;5382;42.136;24.796;2023-05-01T07:25:53;100095.75;;;17.55;100.00
10668;BME280;5382;42.136;24.796;2023-05-01T07:28:21;100095.50;;;17.58;100.00
10668;BME280;5382;42.136;24.796;2023-05-01T07:30:49;100103.81;;;17.73;100.00
10668;BME280;5382;42.136;24.796;2023-05-01T07:33:16;100105.84;;;17.71;100.00
10668;BME280;5382;42.136;24.796;2023-05-01T07:35:43;100087.22;;;17.70;100.00
10668;BME280;5382;42.136;24.796;2023-05-01T07:38:10;100104.09;;;17.80;100.00
10668;BME280;5382;42.136;24.796;2023-05-01T07:40:37;100100.28;;;17.82;100.00
10668;BME280;5382;42.136;24.796;2023-05-01T07:43:04;100097.16;;;17.87;100.00
10668;BME280;5382;42.136;24.796;2023-05-01T07:45:31;100099.75;;;17.97;100.00
10668;BME280;5382;42.136;24.796;2023-05-01T07:48:00;100097.53;;;18.10;100.00
10668;BME280;5382;42.136;24.796;2023-05-01T07:50:27;100094.91;;;18.18;100.00
10668;BME280;5382;42.136;24.796;2023-05-01T07:52:54;100107.22;;;18.29;100.00
10668;BME280;5382;42.136;24.796;2023-05-01T07:55:21;100101.41;;;18.34;100.00
10668;BME280;5382;42.136;24.796;2023-05-01T07:57:48;100103.31;;;18.41;100.00
10668;BME280;5382;42.136;24.796;2023-05-01T08:00:15;100101.19;;;18.53;100.00
10668;BME280;5382;42.136;24.796;2023-05-01T08:02:42;100101.78;;;18.65;100.00
10668;BME280;5382;42.136;24.796;2023-05-01T08:05:10;100103.00;;;18.70;100.00
10668;BME280;5382;42.136;24.796;2023-05-01T08:07:37;100108.13;;;18.82;100.00
10668;BME280;5382;42.136;24.796;2023-05-01T08:10:05;100104.34;;;18.92;100.00
10668;BME280;5382;42.136;24.796;2023-05-01T08:12:32;100097.03;;;19.03;100.00
10668;BME280;5382;42.136;24.796;2023-05-01T08:14:59;100107.47;;;19.14;100.00
10668;BME280;5382;42.136;24.796;2023-05-01T08:17:26;100111.38;;;19.28;100.00
10668;BME280;5382;42.136;24.796;2023-05-01T08:19:52;100098.66;;;19.38;100.00
10668;BME280;5382;42.136;24.796;2023-05-01T08:22:22;100112.81;;;19.56;100.00
10668;BME280;5382;42.136;24.796;2023-05-01T08:24:49;100106.03;;;19.70;100.00
10668;BME280;5382;42.136;24.796;2023-05-01T08:27:16;100106.19;;;19.77;100.00
10668;BME280;5382;42.136;24.796;2023-05-01T08:29:43;100109.38;;;19.72;100.00
10668;BME280;5382;42.136;24.796;2023-05-01T08:32:10;100102.34;;;19.88;100.00
10668;BME280;5382;42.136;24.796;2023-05-01T08:34:37;100109.75;;;20.02;100.00
10668;BME280;5382;42.136;24.796;2023-05-01T08:37:03;100098.03;;;20.11;100.00
10668;BME280;5382;42.136;24.796;2023-05-01T08:39:32;100102.56;;;20.27;100.00
10668;BME280;5382;42.136;24.796;2023-05-01T08:42:00;100099.38;;;20.32;100.00
10668;BME280;5382;42.136;24.796;2023-05-01T08:44:27;100092.81;;;20.42;100.00
10668;BME280;5382;42.136;24.796;2023-05-01T08:47:05;100097.34;;;20.50;100.00
10668;BME280;5382;42.136;24.796;2023-05-01T08:49:35;100105.06;;;20.45;100.00
10668;BME280;5382;42.136;24.796;2023-05-01T08:52:05;100097.69;;;20.55;100.00
10668;BME280;5382;42.136;24.796;2023-05-01T08:54:35;100100.19;;;20.65;100.00
10668;BME280;5382;42.136;24.796;2023-05-01T08:57:05;100091.78;;;20.76;100.00
10668;BME280;5382;42.136;24.796;2023-05-01T08:59:33;100083.19;;;20.89;100.00
10668;BME280;5382;42.136;24.796;2023-05-01T09:02:01;100084.97;;;21.05;100.00
10668;BME280;5382;42.136;24.796;2023-05-01T09:04:31;100079.88;;;21.18;100.00
10668;BME280;5382;42.136;24.796;2023-05-01T09:06:58;100085.03;;;21.28;100.00
10668;BME280;5382;42.136;24.796;2023-05-01T09:09:26;100084.53;;;21.32;100.00
10668;BME280;5382;42.136;24.796;2023-05-01T09:11:58;100084.94;;;21.52;100.00
10668;BME280;5382;42.136;24.796;2023-05-01T09:14:25;100084.84;;;21.69;100.00
10668;BME280;5382;42.136;24.796;2023-05-01T09:16:52;100074.78;;;21.63;100.00
10668;BME280;5382;42.136;24.796;2023-05-01T09:19:19;100071.88;;;21.72;100.00
10668;BME280;5382;42.136;24.796;2023-05-01T09:21:46;100068.31;;;21.49;100.00
10668;BME280;5382;42.136;24.796;2023-05-01T09:24:13;100068.00;;;21.35;100.00
10668;BME280;5382;42.136;24.796;2023-05-01T09:26:40;100065.16;;;21.45;100.00
10668;BME280;5382;42.136;24.796;2023-05-01T09:29:08;100073.25;;;21.29;100.00
10668;BME280;5382;42.136;24.796;2023-05-01T09:31:35;100058.47;;;21.64;100.00
10668;BME280;5382;42.136;24.796;2023-05-01T09:34:04;100060.63;;;21.69;100.00
10668;BME280;5382;42.136;24.796;2023-05-01T09:36:32;100048.38;;;21.81;100.00
10668;BME280;5382;42.136;24.796;2023-05-01T09:39:00;100058.81;;;22.07;100.00
10668;BME280;5382;42.136;24.796;2023-05-01T09:41:27;100063.59;;;22.20;100.00
10668;BME280;5382;42.136;24.796;2023-05-01T09:43:56;100065.88;;;22.31;100.00
10668;BME280;5382;42.136;24.796;2023-05-01T09:46:25;100058.66;;;22.47;100.00
10668;BME280;5382;42.136;24.796;2023-05-01T09:48:54;100055.34;;;22.59;100.00
10668;BME280;5382;42.136;24.796;2023-05-01T09:51:23;100059.69;;;22.60;100.00
10668;BME280;5382;42.136;24.796;2023-05-01T09:53:51;100058.47;;;22.63;100.00
10668;BME280;5382;42.136;24.796;2023-05-01T09:56:18;100055.41;;;22.51;100.00
10668;BME280;5382;42.136;24.796;2023-05-01T09:58:46;100058.13;;;22.81;100.00
10668;BME280;5382;42.136;24.796;2023-05-01T10:01:13;100058.88;;;22.75;97.93
10668;BME280;5382;42.136;24.796;2023-05-01T10:03:44;100046.59;;;22.72;99.98
10668;BME280;5382;42.136;24.796;2023-05-01T10:06:11;100048.53;;;22.93;100.00
10668;BME280;5382;42.136;24.796;2023-05-01T10:08:45;100043.78;;;23.10;100.00
10668;BME280;5382;42.136;24.796;2023-05-01T10:11:12;100048.75;;;23.06;100.00
10668;BME280;5382;42.136;24.796;2023-05-01T10:13:39;100047.63;;;23.16;92.45
10668;BME280;5382;42.136;24.796;2023-05-01T10:16:06;100046.22;;;23.05;94.41
10668;BME280;5382;42.136;24.796;2023-05-01T10:18:35;100046.88;;;23.22;100.00
10668;BME280;5382;42.136;24.796;2023-05-01T10:21:03;100051.69;;;23.26;95.99
10668;BME280;5382;42.136;24.796;2023-05-01T10:23:30;100054.94;;;23.37;85.80
10668;BME280;5382;42.136;24.796;2023-05-01T10:26:01;100046.41;;;23.55;89.06
10668;BME280;5382;42.136;24.796;2023-05-01T10:28:30;100043.78;;;23.61;84.22
10668;BME280;5382;42.136;24.796;2023-05-01T10:30:57;100046.16;;;23.71;91.37
10668;BME280;5382;42.136;24.796;2023-05-01T10:33:24;100052.41;;;23.71;88.74
10668;BME280;5382;42.136;24.796;2023-05-01T10:35:55;100045.72;;;24.10;84.35
10668;BME280;5382;42.136;24.796;2023-05-01T10:38:26;100048.16;;;24.48;80.59
10668;BME280;5382;42.136;24.796;2023-05-01T10:40:56;100043.38;;;24.85;86.63
10668;BME280;5382;42.136;24.796;2023-05-01T10:43:23;100050.59;;;25.13;82.89
10668;BME280;5382;42.136;24.796;2023-05-01T10:45:54;100046.22;;;24.42;78.83
10668;BME280;5382;42.136;24.796;2023-05-01T10:51:21;100051.06;;;24.81;86.64
10668;BME280;5382;42.136;24.796;2023-05-01T10:54:23;100047.19;;;24.63;80.61
10668;BME280;5382;42.136;24.796;2023-05-01T10:56:51;100062.34;;;23.86;86.63
10668;BME280;5382;42.136;24.796;2023-05-01T10:59:18;100055.28;;;24.06;79.61
10668;BME280;5382;42.136;24.796;2023-05-01T11:01:46;100055.75;;;23.52;81.79
10668;BME280;5382;42.136;24.796;2023-05-01T11:04:49;100049.25;;;24.32;76.36
10668;BME280;5382;42.136;24.796;2023-05-01T11:07:21;100057.47;;;25.15;86.81
10668;BME280;5382;42.136;24.796;2023-05-01T11:09:51;100063.31;;;25.67;74.28
10668;BME280;5382;42.136;24.796;2023-05-01T11:12:48;100061.31;;;26.22;69.30
10668;BME280;5382;42.136;24.796;2023-05-01T11:15:29;100059.63;;;26.48;66.63
10668;BME280;5382;42.136;24.796;2023-05-01T11:17:57;100064.84;;;26.76;68.41
10668;BME280;5382;42.136;24.796;2023-05-01T11:20:54;100062.56;;;26.53;68.29
10668;BME280;5382;42.136;24.796;2023-05-01T11:23:21;100048.53;;;25.83;69.36
10668;BME280;5382;42.136;24.796;2023-05-01T11:26:00;100059.44;;;25.28;68.17
10668;BME280;5382;42.136;24.796;2023-05-01T11:28:29;100061.91;;;24.88;71.96
10668;BME280;5382;42.136;24.796;2023-05-01T11:30:57;100050.56;;;24.43;74.65
10668;BME280;5382;42.136;24.796;2023-05-01T11:33:24;100062.41;;;23.56;88.82
10668;BME280;5382;42.136;24.796;2023-05-01T11:36:01;100062.75;;;22.87;94.81
10668;BME280;5382;42.136;24.796;2023-05-01T11:38:29;100062.44;;;22.37;98.60
10668;BME280;5382;42.136;24.796;2023-05-01T11:41:03;100056.09;;;22.83;100.00
10668;BME280;5382;42.136;24.796;2023-05-01T11:43:30;100046.94;;;23.65;97.96
10668;BME280;5382;42.136;24.796;2023-05-01T11:45:57;100047.81;;;24.65;90.98
10668;BME280;5382;42.136;24.796;2023-05-01T11:48:28;100045.00;;;24.23;85.94
10668;BME280;5382;42.136;24.796;2023-05-01T11:50:55;100050.13;;;24.40;84.29
10668;BME280;5382;42.136;24.796;2023-05-01T11:53:22;100044.25;;;24.92;84.09
10668;BME280;5382;42.136;24.796;2023-05-01T11:55:49;100052.84;;;25.51;83.74
10668;BME280;5382;42.136;24.796;2023-05-01T11:58:29;100032.66;;;25.60;80.04
10668;BME280;5382;42.136;24.796;2023-05-01T12:00:57;100045.66;;;25.84;82.91
10668;BME280;5382;42.136;24.796;2023-05-01T12:03:24;100045.88;;;26.16;77.57
10668;BME280;5382;42.136;24.796;2023-05-01T12:05:51;100032.50;;;26.61;77.99
10668;BME280;5382;42.136;24.796;2023-05-01T12:08:19;100042.75;;;26.52;77.50
10668;BME280;5382;42.136;24.796;2023-05-01T12:10:49;100036.91;;;26.62;71.74
10668;BME280;5382;42.136;24.796;2023-05-01T12:13:18;100040.25;;;26.31;69.24
10668;BME280;5382;42.136;24.796;2023-05-01T12:15:46;100032.28;;;26.49;66.38
10668;BME280;5382;42.136;24.796;2023-05-01T12:18:15;100038.78;;;26.55;70.80
10668;BME280;5382;42.136;24.796;2023-05-01T12:20:44;100036.91;;;26.62;69.39
10668;BME280;5382;42.136;24.796;2023-05-01T12:23:12;100048.06;;;27.06;66.09
10668;BME280;5382;42.136;24.796;2023-05-01T12:25:41;100030.91;;;27.18;66.63
10668;BME280;5382;42.136;24.796;2023-05-01T12:28:10;100036.19;;;26.93;65.70
10668;BME280;5382;42.136;24.796;2023-05-01T12:30:39;100041.50;;;26.42;72.41
10668;BME280;5382;42.136;24.796;2023-05-01T12:33:10;100044.19;;;26.48;69.33
10668;BME280;5382;42.136;24.796;2023-05-01T12:35:37;100040.50;;;27.14;66.91
10668;BME280;5382;42.136;24.796;2023-05-01T12:38:15;100031.63;;;26.81;67.71
10668;BME280;5382;42.136;24.796;2023-05-01T12:40:53;100035.44;;;26.33;64.46
10668;BME280;5382;42.136;24.796;2023-05-01T12:43:28;100050.38;;;25.62;69.85
10668;BME280;5382;42.136;24.796;2023-05-01T12:45:57;100048.97;;;25.18;69.79
10668;BME280;5382;42.136;24.796;2023-05-01T12:48:24;100045.03;;;25.96;71.57
10668;BME280;5382;42.136;24.796;2023-05-01T12:50:51;100057.16;;;26.46;67.21
10668;BME280;5382;42.136;24.796;2023-05-01T12:53:20;100040.63;;;26.68;66.32
10668;BME280;5382;42.136;24.796;2023-05-01T12:55:48;100041.66;;;27.38;63.11